1880 Hurricane NOT_NAMED (1880230N15342)


IBTrACS version v04r00. Visit IBTrACS website for data access.
Please direct all questions to the IBTrACS Q and A forum

Storm track - Intensity - Wind Radii - Intensity Data - Source Data - All data

Summary Information

Storm ID 1880230N15342
Start Aug 17 06Z
Landfall Aug 29 15Z, Aug 31 03Z, Aug 31 15Z
Max Intensity 100 kt (Aug 27 06Z), 955 mb (Aug 29 00Z)
End Sep 2 12Z
ATCF IDs ,AL041880
Track status Best track data.

Storm track plot

Map of storm track

Intensity plots

Map of storm track

Radial wind information

No radial wind information for this storm


Position and Intensity Table

BASIN ISO_TIME_________ NATURE LAT LON WMO WIND WMO PRES USA WIND USA PRES MLC WIND MLC PRES
degrees north degrees east kts mb kts mb kts mb
NA 1880-08-17 06:00:00 TS 14.70 -17.90 30
NA 09:00:00 TS 14.94 -18.75 35
NA 12:00:00 TS 15.20 -19.60 40
NA 15:00:00 TS 15.50 -20.45 42
NA 18:00:00 TS 15.80 -21.30 45
NA 21:00:00 TS 16.05 -22.15 50
NA 1880-08-18 00:00:00 TS 16.30 -23.00 55
NA 03:00:00 TS 16.60 -23.85 55
NA 06:00:00 TS 16.90 -24.70 55
NA 09:00:00 TS 17.16 -25.54 55
NA 12:00:00 TS 17.40 -26.40 55
NA 15:00:00 TS 17.61 -27.29 55
NA 18:00:00 TS 17.80 -28.20 55
NA 21:00:00 TS 18.00 -29.10 55
NA 1880-08-19 00:00:00 TS 18.20 -30.00 55
NA 03:00:00 TS 18.41 -30.89 55
NA 06:00:00 TS 18.60 -31.80 55
NA 09:00:00 TS 18.75 -32.75 55
NA 12:00:00 TS 18.90 -33.70 55
NA 15:00:00 TS 19.09 -34.61 55
NA 18:00:00 TS 19.30 -35.50 55
NA 21:00:00 TS 19.50 -36.40 55
NA 1880-08-20 00:00:00 TS 19.70 -37.30 55
NA 03:00:00 TS 19.90 -38.20 55
NA 06:00:00 TS 20.10 -39.10 55
NA 09:00:00 TS 20.29 -40.03 55
NA 12:00:00 TS 20.50 -40.90 55
NA 15:00:00 TS 20.75 -41.64 55
NA 18:00:00 TS 21.00 -42.30 55
NA 21:00:00 TS 21.20 -42.95 55
NA 1880-08-21 00:00:00 TS 21.40 -43.60 55
NA 03:00:00 TS 21.65 -44.30 55
NA 06:00:00 TS 21.90 -45.00 55
NA 09:00:00 TS 22.10 -45.65 55
NA 12:00:00 TS 22.30 -46.30 55
NA 15:00:00 TS 22.54 -46.99 55
NA 18:00:00 TS 22.80 -47.70 55
NA 21:00:00 TS 23.06 -48.41 55
NA 1880-08-22 00:00:00 TS 23.30 -49.10 55
NA 03:00:00 TS 23.51 -49.75 55
NA 06:00:00 TS 23.70 -50.40 55
NA 09:00:00 TS 23.89 -51.09 55
NA 12:00:00 TS 24.10 -51.80 55
NA 15:00:00 TS 24.34 -52.51 55
NA 18:00:00 TS 24.60 -53.20 55
NA 21:00:00 TS 24.88 -53.86 57
NA 1880-08-23 00:00:00 TS 25.10 -54.50 60
NA 03:00:00 TS 25.18 -55.15 60
NA 06:00:00 TS 25.20 -55.80 60
NA 09:00:00 TS 25.25 -56.45 60
NA 12:00:00 TS 25.30 -57.10 60
NA 15:00:00 TS 25.35 -57.75 60
NA 18:00:00 TS 25.40 -58.40 60
NA 21:00:00 TS 25.48 -59.06 62
NA 1880-08-24 00:00:00 TS 25.23 -58.97 50 50 65
NA 03:00:00 TS 25.07 -59.16 50 67
NA 06:00:00 TS 25.02 -59.48 50 50 70
NA 09:00:00 TS 25.08 -59.89 50 72
NA 12:00:00 TS 25.17 -60.43 50 50 75
NA 15:00:00 TS 25.24 -60.95 50 77
NA 18:00:00 TS 25.30 -61.47 50 50 80
NA 21:00:00 TS 25.36 -62.01 55 82
NA 1880-08-25 00:00:00 TS 25.43 -62.53 60 60 85
NA 03:00:00 TS 25.51 -63.02 60 87
NA 06:00:00 TS 25.60 -63.50 60 60 90
NA 09:00:00 TS 25.69 -63.98 60 90
NA 12:00:00 TS 25.77 -64.47 60 60 90
NA 15:00:00 TS 25.84 -65.00 60 90
NA 18:00:00 TS 25.90 -65.53 60 60 90
NA 21:00:00 TS 25.95 -66.05 65 90
NA 1880-08-26 00:00:00 TS 26.00 -66.57 70 70 90
NA 03:00:00 TS 26.07 -67.11 70 90
NA 06:00:00 TS 26.13 -67.67 70 70 90
NA 09:00:00 TS 26.17 -68.22 75 92
NA 12:00:00 TS 26.20 -68.77 80 80 95
NA 15:00:00 TS 26.25 -69.28 80 95
NA 18:00:00 TS 26.33 -69.80 80 80 95 962
NA 21:00:00 TS 26.48 -70.38 85 95
NA 1880-08-27 00:00:00 TS 26.63 -70.97 90 90 95
NA 03:00:00 TS 26.71 -71.52 90 97
NA 06:00:00 TS 26.77 -72.07 90 90 100
NA 09:00:00 TS 26.85 -72.66 90 100
NA 12:00:00 TS 26.93 -73.23 90 90 100
NA 15:00:00 TS 27.00 -73.73 90 100
NA 18:00:00 TS 27.07 -74.20 90 90 100
NA 21:00:00 TS 27.14 -74.68 90 100
NA 1880-08-28 00:00:00 TS 27.23 -75.17 90 90 100
NA 03:00:00 TS 27.33 -75.68 90 100
NA 06:00:00 TS 27.43 -76.20 90 90 100
NA 09:00:00 TS 27.52 -76.69 90 100
NA 12:00:00 TS 27.60 -77.17 90 90 100
NA 15:00:00 TS 27.67 -77.65 90 100
NA 18:00:00 TS 27.73 -78.13 90 90 100
NA 21:00:00 TS 27.82 -78.61 90 100
NA 1880-08-29 00:00:00 TS 27.90 -79.07 90 972 90 972 100 955
NA 03:00:00 TS 27.96 -79.50 90 100 963
NA 06:00:00 TS 28.03 -79.90 90 90 100 972
NA 09:00:00 TS 28.14 -80.27 90 100
NA 12:00:00 TS 28.23 -80.60 90 90 100
NA 15:00:00 TS 28.26 -80.89 80 95
NA 18:00:00 TS 28.27 -81.17 70 70 90
NA 21:00:00 TS 28.28 -81.47 65 85
NA 1880-08-30 00:00:00 TS 28.30 -81.77 60 60 80
NA 03:00:00 TS 28.30 -82.07 60 77
NA 06:00:00 TS 28.33 -82.33 60 60 75
NA 09:00:00 TS 28.46 -82.50 60 72
NA 12:00:00 TS 28.63 -82.70 60 60 70
NA 15:00:00 TS 28.81 -83.08 65 70
NA 18:00:00 TS 29.00 -83.53 70 70 70
NA 21:00:00 TS 29.21 -83.96 70 67
NA 1880-08-31 00:00:00 TS 29.43 -84.43 70 70 65
NA 03:00:00 TS 29.67 -84.99 70 62
NA 04:00:00 TS 29.74 -85.15 70 70 61
NA 06:00:00 TS 29.87 -85.40 70 70 60
NA 09:00:00 TS 30.06 -85.89 65 57
NA 12:00:00 TS 30.30 -86.40 60 60 55 992
NA 15:00:00 TS 30.57 -86.83 60 52
NA 18:00:00 TS 30.90 -87.20 60 60 50
NA 21:00:00 TS 31.27 -87.54 55 47
NA 1880-09-01 00:00:00 TS 31.67 -87.83 50 50 45
NA 03:00:00 TS 32.06 -88.09 45 40
NA 06:00:00 TS 32.47 -88.33 40 40 35
NA 09:00:00 TS 32.88 -88.62 35 32
NA 12:00:00 TS 33.32 -88.80 30 30 30
NA 15:00:00 TS 33.78 -88.81 30 25
NA 18:00:00 TS 34.37 -88.70 30 30 20
NA 21:00:00 TS 35.30 -88.51 20
NA 1880-09-02 00:00:00 TS 35.80 -88.50 20
NA 03:00:00 TS 36.30 -88.41 20
NA 06:00:00 TS 36.80 -88.30 20
NA 09:00:00 TS 37.30 -88.23 20
NA 12:00:00 TS 37.80 -88.20 20

Source Information

Agency Information
USA hurdat2-1851-2018-051019.txt:Line=4062:UNNAMED
TOKYO
CMA
HKO
NEWDELHI
REUNION
BOM
NADI
WELLINGTON
DS824
TD9636
TD9635
NEUMANN
MLC

All available IBTrACS Data

SEASON BASIN SUBBASIN ISO_TIME_________ NATURE LAT LON WMO WIND WMO PRES WMO AGENCY DIST2LAND LANDFALL IFLAG USA AGENCY USA ATCF_ID USA LAT USA LON USA RECORD USA STATUS USA WIND USA PRES USA SSHS MLC LAT MLC LON MLC CLASS MLC WIND MLC PRES STORM SPEED STORM DIR
Year degrees north degrees east kts mb km km degrees north degrees east kts mb 1 degrees north degrees east kts mb kts degrees
1880 NA NA 1880-08-17 06:00:00 TS 14.70 -17.90 43 43 _____________O -1 14.70 -17.90 TD 30 17 286
1880 NA NA 09:00:00 TS 14.94 -18.75 130 130 _____________P -1 14.94 -18.75 TD 35 17 287
1880 NA NA 12:00:00 TS 15.20 -19.60 232 232 _____________O -1 15.20 -19.60 TS 40 17 289
1880 NA NA 15:00:00 TS 15.50 -20.45 334 334 _____________P -1 15.50 -20.45 TS 42 17 290
1880 NA NA 18:00:00 TS 15.80 -21.30 426 426 _____________O -1 15.80 -21.30 TS 45 17 289
1880 NA NA 21:00:00 TS 16.05 -22.15 524 524 _____________P -1 16.05 -22.15 TS 50 17 287
1880 NA NA 1880-08-18 00:00:00 TS 16.30 -23.00 616 616 _____________O -1 16.30 -23.00 TS 55 17 289
1880 NA NA 03:00:00 TS 16.60 -23.85 717 717 _____________P -1 16.60 -23.85 TS 55 17 290
1880 NA NA 06:00:00 TS 16.90 -24.70 808 808 _____________O -1 16.90 -24.70 TS 55 17 289
1880 NA NA 09:00:00 TS 17.16 -25.54 900 900 _____________P -1 17.16 -25.54 TS 55 17 287
1880 NA NA 12:00:00 TS 17.40 -26.40 998 998 _____________O -1 17.40 -26.40 TS 55 17 285
1880 NA NA 15:00:00 TS 17.61 -27.29 1095 1095 _____________P -1 17.61 -27.29 TS 55 18 283
1880 NA NA 18:00:00 TS 17.80 -28.20 1193 1193 _____________O -1 17.80 -28.20 TS 55 18 283
1880 NA NA 21:00:00 TS 18.00 -29.10 1291 1291 _____________P -1 18.00 -29.10 TS 55 18 283
1880 NA NA 1880-08-19 00:00:00 TS 18.20 -30.00 1382 1382 _____________O -1 18.20 -30.00 TS 55 18 283
1880 NA NA 03:00:00 TS 18.41 -30.89 1469 1469 _____________P -1 18.41 -30.89 TS 55 18 283
1880 NA NA 06:00:00 TS 18.60 -31.80 1557 1557 _____________O -1 18.60 -31.80 TS 55 18 281
1880 NA NA 09:00:00 TS 18.75 -32.75 1658 1656 _____________P -1 18.75 -32.75 TS 55 18 279
1880 NA NA 12:00:00 TS 18.90 -33.70 1748 1748 _____________O -1 18.90 -33.70 TS 55 18 281
1880 NA NA 15:00:00 TS 19.09 -34.61 1837 1837 _____________P -1 19.09 -34.61 TS 55 17 283
1880 NA NA 18:00:00 TS 19.30 -35.50 1928 1928 _____________O -1 19.30 -35.50 TS 55 17 284
1880 NA NA 21:00:00 TS 19.50 -36.40 2018 2018 _____________P -1 19.50 -36.40 TS 55 17 283
1880 NA NA 1880-08-20 00:00:00 TS 19.70 -37.30 2109 2109 _____________O -1 19.70 -37.30 TS 55 17 283
1880 NA NA 03:00:00 TS 19.90 -38.20 2200 2200 _____________P -1 19.90 -38.20 TS 55 17 283
1880 NA NA 06:00:00 TS 20.10 -39.10 2208 2169 _____________O -1 20.10 -39.10 TS 55 18 283
1880 NA NA 09:00:00 TS 20.29 -40.03 2169 2129 _____________P -1 20.29 -40.03 TS 55 17 283
1880 NA NA 12:00:00 TS 20.50 -40.90 2129 2103 _____________O -1 20.50 -40.90 TS 55 16 287
1880 NA NA 15:00:00 TS 20.75 -41.64 2103 2085 _____________P -1 20.75 -41.64 TS 55 14 291
1880 NA NA 18:00:00 TS 21.00 -42.30 2089 2070 _____________O -1 21.00 -42.30 TS 55 13 290
1880 NA NA 21:00:00 TS 21.20 -42.95 2069 2057 _____________P -1 21.20 -42.95 TS 55 13 288
1880 NA NA 1880-08-21 00:00:00 TS 21.40 -43.60 2057 2041 _____________O -1 21.40 -43.60 TS 55 13 290
1880 NA NA 03:00:00 TS 21.65 -44.30 2041 2038 _____________P -1 21.65 -44.30 TS 55 14 291
1880 NA NA 06:00:00 TS 21.90 -45.00 2039 2027 _____________O -1 21.90 -45.00 TS 55 13 290
1880 NA NA 09:00:00 TS 22.10 -45.65 2030 2021 _____________P -1 22.10 -45.65 TS 55 13 288
1880 NA NA 12:00:00 TS 22.30 -46.30 2022 1989 _____________O -1 22.30 -46.30 TS 55 13 290
1880 NA NA 15:00:00 TS 22.54 -46.99 1989 1925 _____________P -1 22.54 -46.99 TS 55 14 291
1880 NA NA 18:00:00 TS 22.80 -47.70 1925 1859 _____________O -1 22.80 -47.70 TS 55 14 292
1880 NA NA 21:00:00 TS 23.06 -48.41 1862 1798 _____________P -1 23.06 -48.41 TS 55 14 291
1880 NA NA 1880-08-22 00:00:00 TS 23.30 -49.10 1798 1745 _____________O -1 23.30 -49.10 TS 55 13 290
1880 NA NA 03:00:00 TS 23.51 -49.75 1735 1683 _____________P -1 23.51 -49.75 TS 55 13 289
1880 NA NA 06:00:00 TS 23.70 -50.40 1683 1623 _____________O -1 23.70 -50.40 TS 55 13 287
1880 NA NA 09:00:00 TS 23.89 -51.09 1623 1564 _____________P -1 23.89 -51.09 TS 55 13 287
1880 NA NA 12:00:00 TS 24.10 -51.80 1564 1507 _____________O -1 24.10 -51.80 TS 55 14 289
1880 NA NA 15:00:00 TS 24.34 -52.51 1507 1456 _____________P -1 24.34 -52.51 TS 55 14 291
1880 NA NA 18:00:00 TS 24.60 -53.20 1456 1418 _____________O -1 24.60 -53.20 TS 55 13 294
1880 NA NA 21:00:00 TS 24.88 -53.86 1409 1368 _____________P -1 24.88 -53.86 TS 57 13 293
1880 NA NA 1880-08-23 00:00:00 TS 25.10 -54.50 1368 1322 _____________O -1 25.10 -54.50 TS 60 12 284
1880 NA NA 03:00:00 TS 25.18 -55.15 1314 1264 _____________P -1 25.18 -55.15 TS 60 12 275
1880 NA NA 06:00:00 TS 25.20 -55.80 1264 1215 _____________O -1 25.20 -55.80 TS 60 12 273
1880 NA NA 09:00:00 TS 25.25 -56.45 1207 1167 _____________P -1 25.25 -56.45 TS 60 12 275
1880 NA NA 12:00:00 TS 25.30 -57.10 1167 1121 _____________O -1 25.30 -57.10 TS 60 12 275
1880 NA NA 15:00:00 TS 25.35 -57.75 1114 1078 _____________P -1 25.35 -57.75 TS 60 12 275
1880 NA NA 18:00:00 TS 25.40 -58.40 1078 1045 _____________O -1 25.40 -58.40 TS 60 12 276
1880 NA NA 21:00:00 TS 25.48 -59.06 1038 1020 _____________P -1 25.48 -59.06 TS 62 5 252
1880 NA NA 1880-08-24 00:00:00 TS 25.23 -58.97 50 hurdat_atl 1020 1005 O____________O hurdat_atl AL041880 24.70 -57.50 TS 50 0 25.50 -59.70 HU 65 4 190
1880 NA NA 03:00:00 TS 25.07 -59.16 998 969 P____________P AL041880 24.81 -58.05 TS 50 0 25.33 -60.27 HU 67 5 245
1880 NA NA 06:00:00 TS 25.02 -59.48 50 hurdat_atl 969 952 O____________O hurdat_atl AL041880 24.90 -58.60 TS 50 0 25.20 -60.80 HU 70 7 270
1880 NA NA 09:00:00 TS 25.08 -59.89 952 927 P____________P AL041880 24.95 -59.16 TS 50 0 25.33 -61.35 HU 72 9 280
1880 NA NA 12:00:00 TS 25.17 -60.43 50 hurdat_atl 930 901 O____________O hurdat_atl AL041880 25.00 -59.70 TS 50 0 25.50 -61.90 HU 75 10 279
1880 NA NA 15:00:00 TS 25.24 -60.95 896 884 P____________P AL041880 25.08 -60.20 TS 50 0 25.54 -62.46 HU 77 9 278
1880 NA NA 18:00:00 TS 25.30 -61.47 50 hurdat_atl 879 860 O____________O hurdat_atl AL041880 25.20 -60.70 TS 50 0 25.50 -63.00 HU 80 10 278
1880 NA NA 21:00:00 TS 25.36 -62.01 866 845 P____________P AL041880 25.35 -61.25 TS 55 0 25.39 -63.52 HU 82 10 278
1880 NA NA 1880-08-25 00:00:00 TS 25.43 -62.53 60 hurdat_atl 845 837 O____________O hurdat_atl AL041880 25.50 -61.80 TS 60 0 25.30 -64.00 HU 85 9 279
1880 NA NA 03:00:00 TS 25.51 -63.02 837 831 P____________P AL041880 25.60 -62.31 TS 60 0 25.34 -64.46 HU 87 9 281
1880 NA NA 06:00:00 TS 25.60 -63.50 60 hurdat_atl 833 826 O____________O hurdat_atl AL041880 25.70 -62.80 TS 60 0 25.40 -64.90 HU 90 9 281
1880 NA NA 09:00:00 TS 25.69 -63.98 832 825 P____________P AL041880 25.85 -63.28 TS 60 0 25.36 -65.36 HU 90 9 281
1880 NA NA 12:00:00 TS 25.77 -64.47 60 hurdat_atl 835 829 O____________O hurdat_atl AL041880 26.00 -63.80 TS 60 0 25.30 -65.80 HU 90 9 279
1880 NA NA 15:00:00 TS 25.84 -65.00 829 828 P____________P AL041880 26.11 -64.39 TS 60 0 25.30 -66.20 HU 90 10 278
1880 NA NA 18:00:00 TS 25.90 -65.53 60 hurdat_atl 834 811 O____________O hurdat_atl AL041880 26.20 -65.00 TS 60 0 25.30 -66.60 HU 90 10 277
1880 NA NA 21:00:00 TS 25.95 -66.05 811 800 P____________P AL041880 26.30 -65.55 TS 65 1 25.25 -67.04 HU 90 9 276
1880 NA NA 1880-08-26 00:00:00 TS 26.00 -66.57 70 hurdat_atl 795 778 O____________O hurdat_atl AL041880 26.40 -66.10 HU 70 1 25.20 -67.50 HU 90 10 277
1880 NA NA 03:00:00 TS 26.07 -67.11 784 766 P____________P AL041880 26.51 -66.69 HU 70 1 25.19 -67.95 HU 90 10 278
1880 NA NA 06:00:00 TS 26.13 -67.67 70 hurdat_atl 763 742 O____________O hurdat_atl AL041880 26.60 -67.30 HU 70 1 25.20 -68.40 HU 90 10 276
1880 NA NA 09:00:00 TS 26.17 -68.22 742 709 P____________P AL041880 26.65 -67.91 HU 75 1 25.20 -68.85 HU 92 10 274
1880 NA NA 12:00:00 TS 26.20 -68.77 80 hurdat_atl 703 673 O____________O hurdat_atl AL041880 26.70 -68.50 HU 80 1 25.20 -69.30 HU 95 10 275
1880 NA NA 15:00:00 TS 26.25 -69.28 673 656 P____________P AL041880 26.79 -69.04 HU 80 1 25.16 -69.75 HU 95 9 278
1880 NA NA 18:00:00 TS 26.33 -69.80 80 hurdat_atl 656 647 O____________O hurdat_atl AL041880 26.90 -69.60 HU 80 1 25.20 -70.20 HU 95 962 10 283
1880 NA NA 21:00:00 TS 26.48 -70.38 648 640 P____________P AL041880 27.01 -70.24 HU 85 2 25.43 -70.65 HU 95 11 286
1880 NA NA 1880-08-27 00:00:00 TS 26.63 -70.97 90 hurdat_atl 636 633 O____________O hurdat_atl AL041880 27.10 -70.90 HU 90 2 25.70 -71.10 HU 95 10 283
1880 NA NA 03:00:00 TS 26.71 -71.52 633 624 P____________P AL041880 27.16 -71.50 HU 90 2 25.81 -71.55 HU 97 10 278
1880 NA NA 06:00:00 TS 26.77 -72.07 90 hurdat_atl 616 570 O____________O hurdat_atl AL041880 27.20 -72.10 HU 90 2 25.90 -72.00 MH 100 10 278
1880 NA NA 09:00:00 TS 26.85 -72.66 565 519 P____________P AL041880 27.25 -72.77 HU 90 2 26.05 -72.45 MH 100 11 279
1880 NA NA 12:00:00 TS 26.93 -73.23 90 hurdat_atl 519 478 O____________O hurdat_atl AL041880 27.30 -73.40 HU 90 2 26.20 -72.90 MH 100 10 279
1880 NA NA 15:00:00 TS 27.00 -73.73 478 440 P____________P AL041880 27.35 -73.92 HU 90 2 26.30 -73.35 MH 100 9 279
1880 NA NA 18:00:00 TS 27.07 -74.20 90 hurdat_atl 440 397 O____________O hurdat_atl AL041880 27.40 -74.40 HU 90 2 26.40 -73.80 MH 100 9 280
1880 NA NA 21:00:00 TS 27.14 -74.68 397 372 P____________P AL041880 27.44 -74.89 HU 90 2 26.55 -74.25 MH 100 9 281
1880 NA NA 1880-08-28 00:00:00 TS 27.23 -75.17 90 hurdat_atl 364 336 O____________O hurdat_atl AL041880 27.50 -75.40 HU 90 2 26.70 -74.70 MH 100 9 282
1880 NA NA 03:00:00 TS 27.33 -75.68 336 313 P____________P AL041880 27.60 -75.95 HU 90 2 26.80 -75.15 MH 100 9 282
1880 NA NA 06:00:00 TS 27.43 -76.20 90 hurdat_atl 313 297 O____________O hurdat_atl AL041880 27.70 -76.50 HU 90 2 26.90 -75.60 MH 100 9 282
1880 NA NA 09:00:00 TS 27.52 -76.69 297 293 P____________P AL041880 27.76 -77.01 HU 90 2 27.05 -76.05 MH 100 9 281
1880 NA NA 12:00:00 TS 27.60 -77.17 90 hurdat_atl 290 257 O____________O hurdat_atl AL041880 27.80 -77.50 HU 90 2 27.20 -76.50 MH 100 9 280
1880 NA NA 15:00:00 TS 27.67 -77.65 248 212 P____________P AL041880 27.85 -78.01 HU 90 2 27.30 -76.94 MH 100 9 279
1880 NA NA 18:00:00 TS 27.73 -78.13 90 hurdat_atl 212 171 O____________O hurdat_atl AL041880 27.90 -78.50 HU 90 2 27.40 -77.40 MH 100 9 280
1880 NA NA 21:00:00 TS 27.82 -78.61 171 139 P____________P AL041880 27.95 -78.97 HU 90 2 27.55 -77.88 MH 100 8 281
1880 NA NA 1880-08-29 00:00:00 TS 27.90 -79.07 90 972 hurdat_atl 130 98 O____________O hurdat_atl AL041880 28.00 -79.40 HU 90 972 2 27.70 -78.40 MH 100 955 8 281
1880 NA NA 03:00:00 TS 27.96 -79.50 98 59 P____________P AL041880 28.05 -79.78 HU 90 2 27.79 -78.94 MH 100 963 7 280
1880 NA NA 06:00:00 TS 28.03 -79.90 90 hurdat_atl 59 29 O____________O hurdat_atl AL041880 28.10 -80.10 HU 90 2 27.90 -79.50 MH 100 972 7 285
1880 NA NA 09:00:00 TS 28.14 -80.27 29 9 P____________P AL041880 28.15 -80.37 HU 90 2 28.12 -80.08 MH 100 6 288
1880 NA NA 12:00:00 TS 28.23 -80.60 90 hurdat_atl 9 0 O____________O hurdat_atl AL041880 28.20 -80.60 L HU 90 2 28.30 -80.60 MH 100 6 283
1880 NA NA 15:00:00 TS 28.26 -80.89 0 0 P____________P AL041880 28.25 -80.85 HU 80 1 28.29 -80.97 MH 95 5 274
1880 NA NA 18:00:00 TS 28.27 -81.17 70 hurdat_atl 0 0 O____________O hurdat_atl AL041880 28.30 -81.10 HU 70 1 28.20 -81.30 HU 90 5 272
1880 NA NA 21:00:00 TS 28.28 -81.47 0 0 P____________P AL041880 28.35 -81.35 HU 65 1 28.15 -81.70 HU 85 5 274
1880 NA NA 1880-08-30 00:00:00 TS 28.30 -81.77 60 hurdat_atl 0 0 O____________O hurdat_atl AL041880 28.40 -81.60 TS 60 0 28.10 -82.10 HU 80 5 271
1880 NA NA 03:00:00 TS 28.30 -82.07 0 0 P____________P AL041880 28.44 -81.85 TS 60 0 28.01 -82.50 HU 77 5 274
1880 NA NA 06:00:00 TS 28.33 -82.33 60 hurdat_atl 0 0 O____________O hurdat_atl AL041880 28.50 -82.10 TS 60 0 28.00 -82.80 HU 75 4 293
1880 NA NA 09:00:00 TS 28.46 -82.50 0 0 P____________P AL041880 28.58 -82.34 TS 60 0 28.20 -82.82 HU 72 4 313
1880 NA GM 12:00:00 TS 28.63 -82.70 60 hurdat_atl 9 9 O____________O hurdat_atl AL041880 28.70 -82.60 TS 60 0 28.50 -82.90 HU 70 6 304
1880 NA GM 15:00:00 TS 28.81 -83.08 36 34 P____________P AL041880 28.83 -82.93 TS 65 1 28.75 -83.37 HU 70 8 297
1880 NA GM 18:00:00 TS 29.00 -83.53 70 hurdat_atl 44 44 O____________O hurdat_atl AL041880 29.00 -83.30 HU 70 1 29.00 -84.00 HU 70 9 297
1880 NA GM 21:00:00 TS 29.21 -83.96 67 53 P____________P AL041880 29.19 -83.67 HU 70 1 29.25 -84.55 HU 67 9 299
1880 NA GM 1880-08-31 00:00:00 TS 29.43 -84.43 70 hurdat_atl 53 0 O____________O hurdat_atl AL041880 29.40 -84.10 HU 70 1 29.50 -85.10 HU 65 10 298
1880 NA GM 03:00:00 TS 29.67 -84.99 0 0 P____________P AL041880 29.63 -84.65 HU 70 1 29.75 -85.66 HU 62 10 297
1880 NA GM 04:00:00 TS 29.74 -85.15 70 hurdat_atl 0 0 O____________P hurdat_atl AL041880 29.70 -84.80 L HU 70 1 29.83 -85.84 HU 61 8 298
1880 NA GM 06:00:00 TS 29.87 -85.40 70 hurdat_atl 0 0 O____________O hurdat_atl AL041880 29.80 -85.00 HU 70 1 30.00 -86.20 TS 60 9 296
1880 NA GM 09:00:00 TS 30.06 -85.89 11 11 P____________P AL041880 29.98 -85.45 HU 65 1 30.23 -86.75 TS 57 10 297
1880 NA GM 12:00:00 TS 30.30 -86.40 60 hurdat_atl 22 0 O____________O hurdat_atl AL041880 30.20 -86.00 TS 60 0 30.50 -87.20 TS 55 992 10 302
1880 NA NA 15:00:00 TS 30.57 -86.83 0 0 P____________P AL041880 30.43 -86.52 TS 60 0 30.87 -87.45 TS 52 9 311
1880 NA NA 18:00:00 TS 30.90 -87.20 60 hurdat_atl 0 0 O____________O hurdat_atl AL041880 30.70 -87.00 TS 60 0 31.30 -87.60 TS 50 9 319
1880 NA NA 21:00:00 TS 31.27 -87.54 0 0 P____________P AL041880 31.03 -87.43 TS 55 0 31.75 -87.76 TS 47 9 325
1880 NA NA 1880-09-01 00:00:00 TS 31.67 -87.83 50 hurdat_atl 0 0 O____________O hurdat_atl AL041880 31.40 -87.80 TS 50 0 32.20 -87.90 TS 45 9 329
1880 NA NA 03:00:00 TS 32.06 -88.09 0 0 P____________P AL041880 31.79 -88.12 TS 45 0 32.61 -88.05 TS 40 9 332
1880 NA NA 06:00:00 TS 32.47 -88.33 40 hurdat_atl 0 0 O____________O hurdat_atl AL041880 32.20 -88.40 TS 40 0 33.00 -88.20 TS 35 9 332
1880 NA NA 09:00:00 TS 32.88 -88.62 0 0 P____________P AL041880 32.62 -88.74 TS 35 0 33.39 -88.37 TS 32 9 335
1880 NA NA 12:00:00 TS 33.32 -88.80 30 hurdat_atl 0 0 O____________O hurdat_atl AL041880 33.00 -89.00 TD 30 -1 33.80 -88.50 TD 30 9 350
1880 NA NA 15:00:00 TS 33.78 -88.81 0 0 P____________P AL041880 33.28 -89.10 TD 30 -1 34.28 -88.52 TD 25 11 4
1880 NA NA 18:00:00 TS 34.37 -88.70 30 hurdat_atl 0 0 O____________O hurdat_atl AL041880 33.50 -89.10 TD 30 -1 34.80 -88.50 TD 20 15 9
1880 NA NA 21:00:00 TS 35.30 -88.51 0 0 _____________P AL041880 TD -1 35.30 -88.51 TD 20 14 6
1880 NA NA 1880-09-02 00:00:00 TS 35.80 -88.50 0 0 _____________O -1 35.80 -88.50 TD 20 10 5
1880 NA NA 03:00:00 TS 36.30 -88.41 0 0 _____________P -1 36.30 -88.41 TD 20 10 9
1880 NA NA 06:00:00 TS 36.80 -88.30 0 0 _____________O -1 36.80 -88.30 TD 20 10 8
1880 NA NA 09:00:00 TS 37.30 -88.23 0 0 _____________P -1 37.30 -88.23 TD 20 10 5
1880 NA NA 12:00:00 TS 37.80 -88.20 0 _____________O -1 37.80 -88.20 TD 20 10 2